sensor_id;sensor_type;location;lat;lon;timestamp;temperature;humidity
9776;DHT22;4927;52.472;13.108;2023-11-22T00:00:00;-0.90;99.90
9776;DHT22;4927;52.472;13.108;2023-11-22T00:01:03;-0.90;99.90
9776;DHT22;4927;52.472;13.108;2023-11-22T00:02:04;-0.90;99.90
9776;DHT22;4927;52.472;13.108;2023-11-22T00:03:06;-0.90;99.90
9776;DHT22;4927;52.472;13.108;2023-11-22T00:04:08;-0.90;99.90
9776;DHT22;4927;52.472;13.108;2023-11-22T00:05:11;-0.90;99.90
9776;DHT22;4927;52.472;13.108;2023-11-22T00:06:13;-0.90;99.90
9776;DHT22;4927;52.472;13.108;2023-11-22T00:07:15;-0.90;99.90
9776;DHT22;4927;52.472;13.108;2023-11-22T00:08:18;-0.90;99.90
9776;DHT22;4927;52.472;13.108;2023-11-22T00:09:19;-0.90;99.90
9776;DHT22;4927;52.472;13.108;2023-11-22T00:10:21;-0.90;99.90
9776;DHT22;4927;52.472;13.108;2023-11-22T00:11:24;-0.90;99.90
9776;DHT22;4927;52.472;13.108;2023-11-22T00:12:26;-0.90;99.90
9776;DHT22;4927;52.472;13.108;2023-11-22T00:13:28;-1.00;99.90
9776;DHT22;4927;52.472;13.108;2023-11-22T00:14:30;-0.90;99.90
9776;DHT22;4927;52.472;13.108;2023-11-22T00:15:32;-0.90;99.90
9776;DHT22;4927;52.472;13.108;2023-11-22T00:16:33;-0.90;99.90
9776;DHT22;4927;52.472;13.108;2023-11-22T00:17:35;-0.90;99.90
9776;DHT22;4927;52.472;13.108;2023-11-22T00:18:37;-0.90;99.90
9776;DHT22;4927;52.472;13.108;2023-11-22T00:19:39;-0.90;99.90
9776;DHT22;4927;52.472;13.108;2023-11-22T00:20:42;-0.90;99.90
9776;DHT22;4927;52.472;13.108;2023-11-22T00:21:44;-0.90;99.90
9776;DHT22;4927;52.472;13.108;2023-11-22T00:22:46;-0.80;99.90
9776;DHT22;4927;52.472;13.108;2023-11-22T00:23:48;-0.80;99.90
9776;DHT22;4927;52.472;13.108;2023-11-22T00:24:50;-0.80;99.90
9776;DHT22;4927;52.472;13.108;2023-11-22T00:25:53;-0.80;99.90
9776;DHT22;4927;52.472;13.108;2023-11-22T00:26:54;-0.80;99.90
9776;DHT22;4927;52.472;13.108;2023-11-22T00:27:58;-0.80;99.90
9776;DHT22;4927;52.472;13.108;2023-11-22T00:29:00;-0.80;99.90
9776;DHT22;4927;52.472;13.108;2023-11-22T00:30:04;-0.80;99.90
9776;DHT22;4927;52.472;13.108;2023-11-22T00:31:07;-0.80;99.90
9776;DHT22;4927;52.472;13.108;2023-11-22T00:32:09;-0.80;99.90
9776;DHT22;4927;52.472;13.108;2023-11-22T00:33:11;-0.80;99.90
9776;DHT22;4927;52.472;13.108;2023-11-22T00:34:14;-0.80;99.90
9776;DHT22;4927;52.472;13.108;2023-11-22T00:35:16;-0.80;99.90
9776;DHT22;4927;52.472;13.108;2023-11-22T00:36:18;-0.80;99.90
9776;DHT22;4927;52.472;13.108;2023-11-22T00:37:20;-0.80;99.90
9776;DHT22;4927;52.472;13.108;2023-11-22T00:38:22;-0.80;99.90
9776;DHT22;4927;52.472;13.108;2023-11-22T00:39:24;-0.80;99.90
9776;DHT22;4927;52.472;13.108;2023-11-22T00:40:26;-0.80;99.90
9776;DHT22;4927;52.472;13.108;2023-11-22T00:41:31;-0.80;99.90
9776;DHT22;4927;52.472;13.108;2023-11-22T00:42:32;-0.80;99.90
9776;DHT22;4927;52.472;13.108;2023-11-22T00:43:34;-0.80;99.90
9776;DHT22;4927;52.472;13.108;2023-11-22T00:44:36;-0.80;99.90
9776;DHT22;4927;52.472;13.108;2023-11-22T00:45:38;-0.80;99.90
9776;DHT22;4927;52.472;13.108;2023-11-22T00:46:39;-0.80;99.90
9776;DHT22;4927;52.472;13.108;2023-11-22T00:47:42;-0.80;99.90
9776;DHT22;4927;52.472;13.108;2023-11-22T00:48:44;-0.90;99.90
9776;DHT22;4927;52.472;13.108;2023-11-22T00:49:46;-0.80;99.90
9776;DHT22;4927;52.472;13.108;2023-11-22T00:50:48;-0.80;99.90
9776;DHT22;4927;52.472;13.108;2023-11-22T00:51:50;-0.80;99.90
9776;DHT22;4927;52.472;13.108;2023-11-22T00:52:52;-0.90;99.90
9776;DHT22;4927;52.472;13.108;2023-11-22T00:53:55;-0.80;99.90
9776;DHT22;4927;52.472;13.108;2023-11-22T00:54:57;-0.90;99.90
9776;DHT22;4927;52.472;13.108;2023-11-22T00:56:00;-0.80;99.90
9776;DHT22;4927;52.472;13.108;2023-11-22T00:57:02;-0.90;99.90
9776;DHT22;4927;52.472;13.108;2023-11-22T00:58:05;-0.90;99.90
9776;DHT22;4927;52.472;13.108;2023-11-22T00:59:07;-0.90;99.90
9776;DHT22;4927;52.472;13.108;2023-11-22T01:00:09;-0.90;99.90
9776;DHT22;4927;52.472;13.108;2023-11-22T01:01:12;-0.90;99.90
9776;DHT22;4927;52.472;13.108;2023-11-22T01:02:14;-0.90;99.90
9776;DHT22;4927;52.472;13.108;2023-11-22T01:03:16;-0.90;99.90
9776;DHT22;4927;52.472;13.108;2023-11-22T01:04:18;-0.90;99.90
9776;DHT22;4927;52.472;13.108;2023-11-22T01:05:20;-0.90;99.90
9776;DHT22;4927;52.472;13.108;2023-11-22T01:06:23;-0.90;99.90
9776;DHT22;4927;52.472;13.108;2023-11-22T01:07:25;-0.90;99.90
9776;DHT22;4927;52.472;13.108;2023-11-22T01:08:27;-0.90;99.90
9776;DHT22;4927;52.472;13.108;2023-11-22T01:09:30;-0.80;99.90
9776;DHT22;4927;52.472;13.108;2023-11-22T01:10:33;-0.80;99.90
9776;DHT22;4927;52.472;13.108;2023-11-22T01:11:35;-0.80;99.90
9776;DHT22;4927;52.472;13.108;2023-11-22T01:12:37;-0.80;99.90
9776;DHT22;4927;52.472;13.108;2023-11-22T01:13:39;-0.80;99.90
9776;DHT22;4927;52.472;13.108;2023-11-22T01:14:41;-0.80;99.90
9776;DHT22;4927;52.472;13.108;2023-11-22T01:15:43;-0.80;99.90
9776;DHT22;4927;52.472;13.108;2023-11-22T01:16:46;-0.80;99.90
9776;DHT22;4927;52.472;13.108;2023-11-22T01:17:48;-0.90;99.90
9776;DHT22;4927;52.472;13.108;2023-11-22T01:18:50;-0.80;99.90
9776;DHT22;4927;52.472;13.108;2023-11-22T01:19:52;-0.80;99.90
9776;DHT22;4927;52.472;13.108;2023-11-22T01:20:54;-0.80;99.90
9776;DHT22;4927;52.472;13.108;2023-11-22T01:21:56;-0.80;99.90
9776;DHT22;4927;52.472;13.108;2023-11-22T01:22:58;-0.90;99.90
9776;DHT22;4927;52.472;13.108;2023-11-22T01:24:01;-0.90;99.90
9776;DHT22;4927;52.472;13.108;2023-11-22T01:25:05;-0.90;99.90
9776;DHT22;4927;52.472;13.108;2023-11-22T01:26:08;-0.90;99.90
9776;DHT22;4927;52.472;13.108;2023-11-22T01:27:10;-0.90;99.90
9776;DHT22;4927;52.472;13.108;2023-11-22T01:28:13;-0.90;99.90
9776;DHT22;4927;52.472;13.108;2023-11-22T01:29:15;-0.90;99.90
9776;DHT22;4927;52.472;13.108;2023-11-22T01:30:17;-0.90;99.90
9776;DHT22;4927;52.472;13.108;2023-11-22T01:31:19;-0.90;99.90
9776;DHT22;4927;52.472;13.108;2023-11-22T01:32:22;-0.90;99.90
9776;DHT22;4927;52.472;13.108;2023-11-22T01:33:24;-0.90;99.90
9776;DHT22;4927;52.472;13.108;2023-11-22T01:34:27;-0.90;99.90
9776;DHT22;4927;52.472;13.108;2023-11-22T01:35:29;-0.90;99.90
9776;DHT22;4927;52.472;13.108;2023-11-22T01:36:31;-0.90;99.90
9776;DHT22;4927;52.472;13.108;2023-11-22T01:37:33;-0.90;99.90
9776;DHT22;4927;52.472;13.108;2023-11-22T01:38:35;-0.90;99.90
9776;DHT22;4927;52.472;13.108;2023-11-22T01:39:39;-0.90;99.90
9776;DHT22;4927;52.472;13.108;2023-11-22T01:40:44;-1.00;99.90
9776;DHT22;4927;52.472;13.108;2023-11-22T01:41:46;-1.00;99.90
9776;DHT22;4927;52.472;13.108;2023-11-22T01:42:48;-1.00;99.90
9776;DHT22;4927;52.472;13.108;2023-11-22T01:43:50;-1.00;99.90
9776;DHT22;4927;52.472;13.108;2023-11-22T01:44:51;-1.00;99.90
9776;DHT22;4927;52.472;13.108;2023-11-22T01:45:54;-1.00;99.90
9776;DHT22;4927;52.472;13.108;2023-11-22T01:46:55;-1.00;99.90
9776;DHT22;4927;52.472;13.108;2023-11-22T01:47:58;-1.00;99.90
9776;DHT22;4927;52.472;13.108;2023-11-22T01:49:00;-1.00;99.90
9776;DHT22;4927;52.472;13.108;2023-11-22T01:50:04;-1.00;99.90
9776;DHT22;4927;52.472;13.108;2023-11-22T01:51:07;-1.00;99.90
9776;DHT22;4927;52.472;13.108;2023-11-22T01:52:09;-1.00;99.90
9776;DHT22;4927;52.472;13.108;2023-11-22T01:53:11;-1.00;99.90
9776;DHT22;4927;52.472;13.108;2023-11-22T01:54:14;-1.10;99.90
9776;DHT22;4927;52.472;13.108;2023-11-22T01:55:17;-1.10;99.90
9776;DHT22;4927;52.472;13.108;2023-11-22T01:56:20;-1.10;99.90
9776;DHT22;4927;52.472;13.108;2023-11-22T01:57:22;-1.10;99.90
9776;DHT22;4927;52.472;13.108;2023-11-22T01:58:24;-1.10;99.90
9776;DHT22;4927;52.472;13.108;2023-11-22T01:59:26;-1.10;99.90
9776;DHT22;4927;52.472;13.108;2023-11-22T02:00:28;-1.10;99.90
9776;DHT22;4927;52.472;13.108;2023-11-22T02:01:30;-1.10;99.90
9776;DHT22;4927;52.472;13.108;2023-11-22T02:02:32;-1.10;99.90
9776;DHT22;4927;52.472;13.108;2023-11-22T02:03:34;-1.10;99.90
9776;DHT22;4927;52.472;13.108;2023-11-22T02:04:36;-1.10;99.90
9776;DHT22;4927;52.472;13.108;2023-11-22T02:05:41;-1.10;99.90
9776;DHT22;4927;52.472;13.108;2023-11-22T02:06:42;-1.10;99.90
9776;DHT22;4927;52.472;13.108;2023-11-22T02:07:44;-1.20;99.90
9776;DHT22;4927;52.472;13.108;2023-11-22T02:08:47;-1.10;99.90
9776;DHT22;4927;52.472;13.108;2023-11-22T02:09:49;-1.20;99.90
9776;DHT22;4927;52.472;13.108;2023-11-22T02:10:58;-1.10;99.90
9776;DHT22;4927;52.472;13.108;2023-11-22T02:12:00;-1.10;99.90
9776;DHT22;4927;52.472;13.108;2023-11-22T02:13:03;-1.10;99.90
9776;DHT22;4927;52.472;13.108;2023-11-22T02:14:06;-1.10;99.90
9776;DHT22;4927;52.472;13.108;2023-11-22T02:15:09;-1.10;99.90
9776;DHT22;4927;52.472;13.108;2023-11-22T02:16:11;-1.10;99.90
9776;DHT22;4927;52.472;13.108;2023-11-22T02:17:14;-1.10;99.90
9776;DHT22;4927;52.472;13.108;2023-11-22T02:18:16;-1.10;99.90
9776;DHT22;4927;52.472;13.108;2023-11-22T02:19:18;-1.10;99.90
9776;DHT22;4927;52.472;13.108;2023-11-22T02:20:20;-1.10;99.90
9776;DHT22;4927;52.472;13.108;2023-11-22T02:21:22;-1.10;99.90
9776;DHT22;4927;52.472;13.108;2023-11-22T02:22:23;-1.20;99.90
9776;DHT22;4927;52.472;13.108;2023-11-22T02:23:26;-1.20;99.90
9776;DHT22;4927;52.472;13.108;2023-11-22T02:24:28;-1.20;99.90
9776;DHT22;4927;52.472;13.108;2023-11-22T02:25:30;-1.20;99.90
9776;DHT22;4927;52.472;13.108;2023-11-22T02:26:32;-1.20;99.90
9776;DHT22;4927;52.472;13.108;2023-11-22T02:27:34;-1.20;99.90
9776;DHT22;4927;52.472;13.108;2023-11-22T02:28:36;-1.20;99.90
9776;DHT22;4927;52.472;13.108;2023-11-22T02:29:39;-1.20;99.90
9776;DHT22;4927;52.472;13.108;2023-11-22T02:30:41;-1.20;99.90
9776;DHT22;4927;52.472;13.108;2023-11-22T02:31:43;-1.20;99.90
9776;DHT22;4927;52.472;13.108;2023-11-22T02:32:45;-1.30;99.90
9776;DHT22;4927;52.472;13.108;2023-11-22T02:33:47;-1.30;99.90
9776;DHT22;4927;52.472;13.108;2023-11-22T02:34:49;-1.30;99.90
9776;DHT22;4927;52.472;13.108;2023-11-22T02:35:51;-1.30;99.90
9776;DHT22;4927;52.472;13.108;2023-11-22T02:36:53;-1.30;99.90
9776;DHT22;4927;52.472;13.108;2023-11-22T02:37:55;-1.30;99.90
9776;DHT22;4927;52.472;13.108;2023-11-22T02:38:57;-1.30;99.90
9776;DHT22;4927;52.472;13.108;2023-11-22T02:40:14;-1.40;99.90
9776;DHT22;4927;52.472;13.108;2023-11-22T02:41:15;-1.40;99.90
9776;DHT22;4927;52.472;13.108;2023-11-22T02:42:17;-1.40;99.90
9776;DHT22;4927;52.472;13.108;2023-11-22T02:43:19;-1.40;99.90
9776;DHT22;4927;52.472;13.108;2023-11-22T02:44:21;-1.50;99.90
9776;DHT22;4927;52.472;13.108;2023-11-22T02:45:27;-1.50;99.90
9776;DHT22;4927;52.472;13.108;2023-11-22T02:46:29;-1.50;99.90
9776;DHT22;4927;52.472;13.108;2023-11-22T02:47:31;-1.50;99.90
9776;DHT22;4927;52.472;13.108;2023-11-22T02:48:34;-1.60;99.90
9776;DHT22;4927;52.472;13.108;2023-11-22T02:49:36;-1.60;99.90
9776;DHT22;4927;52.472;13.108;2023-11-22T02:50:38;-1.60;99.90
9776;DHT22;4927;52.472;13.108;2023-11-22T02:51:41;-1.60;99.90
9776;DHT22;4927;52.472;13.108;2023-11-22T02:52:43;-1.60;99.90
9776;DHT22;4927;52.472;13.108;2023-11-22T02:53:45;-1.60;99.90
9776;DHT22;4927;52.472;13.108;2023-11-22T02:54:47;-1.60;99.90
9776;DHT22;4927;52.472;13.108;2023-11-22T02:55:49;-1.60;99.90
9776;DHT22;4927;52.472;13.108;2023-11-22T02:56:50;-1.70;99.90
9776;DHT22;4927;52.472;13.108;2023-11-22T02:57:53;-1.70;99.90
9776;DHT22;4927;52.472;13.108;2023-11-22T02:58:56;-1.70;99.90
9776;DHT22;4927;52.472;13.108;2023-11-22T02:59:58;-1.70;99.90
9776;DHT22;4927;52.472;13.108;2023-11-22T03:01:00;-1.70;99.90
9776;DHT22;4927;52.472;13.108;2023-11-22T03:02:03;-1.70;99.90
9776;DHT22;4927;52.472;13.108;2023-11-22T03:03:05;-1.70;99.90
9776;DHT22;4927;52.472;13.108;2023-11-22T03:04:07;-1.70;99.90
9776;DHT22;4927;52.472;13.108;2023-11-22T03:05:09;-1.70;99.90
9776;DHT22;4927;52.472;13.108;2023-11-22T03:06:16;-1.70;99.90
9776;DHT22;4927;52.472;13.108;2023-11-22T03:07:18;-1.70;99.90
9776;DHT22;4927;52.472;13.108;2023-11-22T03:08:20;-1.70;99.90
9776;DHT22;4927;52.472;13.108;2023-11-22T03:09:22;-1.70;99.90
9776;DHT22;4927;52.472;13.108;2023-11-22T03:10:24;-1.70;99.90
9776;DHT22;4927;52.472;13.108;2023-11-22T03:11:26;-1.70;99.90
9776;DHT22;4927;52.472;13.108;2023-11-22T03:12:31;-1.70;99.90
9776;DHT22;4927;52.472;13.108;2023-11-22T03:13:42;-1.70;99.90
9776;DHT22;4927;52.472;13.108;2023-11-22T03:14:44;-1.70;99.90
9776;DHT22;4927;52.472;13.108;2023-11-22T03:15:46;-1.70;99.90
9776;DHT22;4927;52.472;13.108;2023-11-22T03:16:48;-1.70;99.90
9776;DHT22;4927;52.472;13.108;2023-11-22T03:17:50;-1.70;99.90
9776;DHT22;4927;52.472;13.108;2023-11-22T03:18:52;-1.80;99.90
9776;DHT22;4927;52.472;13.108;2023-11-22T03:19:55;-1.80;99.90
9776;DHT22;4927;52.472;13.108;2023-11-22T03:20:59;-1.80;99.90
9776;DHT22;4927;52.472;13.108;2023-11-22T03:22:01;-1.80;99.90
9776;DHT22;4927;52.472;13.108;2023-11-22T03:23:05;-1.80;99.90
9776;DHT22;4927;52.472;13.108;2023-11-22T03:24:08;-1.80;99.90
9776;DHT22;4927;52.472;13.108;2023-11-22T03:25:11;-1.80;99.90
9776;DHT22;4927;52.472;13.108;2023-11-22T03:26:13;-1.80;99.90
9776;DHT22;4927;52.472;13.108;2023-11-22T03:27:15;-1.80;99.90
9776;DHT22;4927;52.472;13.108;2023-11-22T03:28:17;-1.90;99.90
9776;DHT22;4927;52.472;13.108;2023-11-22T03:29:18;-1.90;99.90
9776;DHT22;4927;52.472;13.108;2023-11-22T03:30:20;-1.90;99.90
9776;DHT22;4927;52.472;13.108;2023-11-22T03:31:22;-1.80;99.90
9776;DHT22;4927;52.472;13.108;2023-11-22T03:32:25;-1.80;99.90
9776;DHT22;4927;52.472;13.108;2023-11-22T03:33:27;-1.80;99.90
9776;DHT22;4927;52.472;13.108;2023-11-22T03:34:29;-1.80;99.90
9776;DHT22;4927;52.472;13.108;2023-11-22T03:35:31;-1.80;99.90
9776;DHT22;4927;52.472;13.108;2023-11-22T03:36:33;-1.80;99.90
9776;DHT22;4927;52.472;13.108;2023-11-22T03:37:35;-1.90;99.90
9776;DHT22;4927;52.472;13.108;2023-11-22T03:38:39;-1.90;99.90
9776;DHT22;4927;52.472;13.108;2023-11-22T03:39:41;-1.90;99.90
9776;DHT22;4927;52.472;13.108;2023-11-22T03:40:43;-1.90;99.90
9776;DHT22;4927;52.472;13.108;2023-11-22T03:41:45;-1.90;99.90
9776;DHT22;4927;52.472;13.108;2023-11-22T03:42:48;-1.90;99.90
9776;DHT22;4927;52.472;13.108;2023-11-22T03:43:50;-1.90;99.90
9776;DHT22;4927;52.472;13.108;2023-11-22T03:44:51;-1.90;99.90
9776;DHT22;4927;52.472;13.108;2023-11-22T03:45:53;-1.90;99.90
9776;DHT22;4927;52.472;13.108;2023-11-22T03:46:55;-2.00;99.90
9776;DHT22;4927;52.472;13.108;2023-11-22T03:47:58;-1.90;99.90
9776;DHT22;4927;52.472;13.108;2023-11-22T03:49:00;-2.00;99.90
9776;DHT22;4927;52.472;13.108;2023-11-22T03:50:02;-2.00;99.90
9776;DHT22;4927;52.472;13.108;2023-11-22T03:51:05;-2.00;99.90
9776;DHT22;4927;52.472;13.108;2023-11-22T03:52:09;-2.00;99.90
9776;DHT22;4927;52.472;13.108;2023-11-22T03:53:11;-2.00;99.90
9776;DHT22;4927;52.472;13.108;2023-11-22T03:54:12;-2.00;99.90
9776;DHT22;4927;52.472;13.108;2023-11-22T03:55:14;-2.10;99.90
9776;DHT22;4927;52.472;13.108;2023-11-22T03:56:17;-2.10;99.90
9776;DHT22;4927;52.472;13.108;2023-11-22T03:57:19;-2.10;99.90
9776;DHT22;4927;52.472;13.108;2023-11-22T03:58:20;-2.10;99.90
9776;DHT22;4927;52.472;13.108;2023-11-22T03:59:23;-2.10;99.90
9776;DHT22;4927;52.472;13.108;2023-11-22T04:00:26;-2.10;99.90
9776;DHT22;4927;52.472;13.108;2023-11-22T04:01:28;-2.20;99.90
9776;DHT22;4927;52.472;13.108;2023-11-22T04:02:29;-2.20;99.90
9776;DHT22;4927;52.472;13.108;2023-11-22T04:03:32;-2.20;99.90
9776;DHT22;4927;52.472;13.108;2023-11-22T04:04:34;-2.20;99.90
9776;DHT22;4927;52.472;13.108;2023-11-22T04:05:36;-2.20;99.90
9776;DHT22;4927;52.472;13.108;2023-11-22T04:06:38;-2.20;99.90
9776;DHT22;4927;52.472;13.108;2023-11-22T04:07:40;-2.20;99.90
9776;DHT22;4927;52.472;13.108;2023-11-22T04:08:43;-2.20;99.90
9776;DHT22;4927;52.472;13.108;2023-11-22T04:09:45;-2.20;99.90
9776;DHT22;4927;52.472;13.108;2023-11-22T04:10:47;-2.20;99.90
9776;DHT22;4927;52.472;13.108;2023-11-22T04:11:49;-2.30;99.90
9776;DHT22;4927;52.472;13.108;2023-11-22T04:12:51;-2.30;99.90
9776;DHT22;4927;52.472;13.108;2023-11-22T04:13:53;-2.30;99.90
9776;DHT22;4927;52.472;13.108;2023-11-22T04:14:55;-2.20;99.90
9776;DHT22;4927;52.472;13.108;2023-11-22T04:15:57;-2.20;99.90
9776;DHT22;4927;52.472;13.108;2023-11-22T04:17:09;-2.20;99.90
9776;DHT22;4927;52.472;13.108;2023-11-22T04:18:11;-2.20;99.90
9776;DHT22;4927;52.472;13.108;2023-11-22T04:19:14;-2.20;99.90
9776;DHT22;4927;52.472;13.108;2023-11-22T04:20:16;-2.20;99.90
9776;DHT22;4927;52.472;13.108;2023-11-22T04:21:18;-2.20;99.90
9776;DHT22;4927;52.472;13.108;2023-11-22T04:22:20;-2.20;99.90
9776;DHT22;4927;52.472;13.108;2023-11-22T04:23:23;-2.20;99.90
9776;DHT22;4927;52.472;13.108;2023-11-22T04:24:24;-2.30;99.90
9776;DHT22;4927;52.472;13.108;2023-11-22T04:25:26;-2.20;99.90
9776;DHT22;4927;52.472;13.108;2023-11-22T04:26:28;-2.30;99.90
9776;DHT22;4927;52.472;13.108;2023-11-22T04:27:30;-2.30;99.90
9776;DHT22;4927;52.472;13.108;2023-11-22T04:28:33;-2.30;99.90
9776;DHT22;4927;52.472;13.108;2023-11-22T04:29:35;-2.30;99.90
9776;DHT22;4927;52.472;13.108;2023-11-22T04:30:37;-2.30;99.90
9776;DHT22;4927;52.472;13.108;2023-11-22T04:31:39;-2.30;99.90
9776;DHT22;4927;52.472;13.108;2023-11-22T04:32:41;-2.40;99.90
9776;DHT22;4927;52.472;13.108;2023-11-22T04:33:43;-2.40;99.90
9776;DHT22;4927;52.472;13.108;2023-11-22T04:34:45;-2.40;99.90
9776;DHT22;4927;52.472;13.108;2023-11-22T04:35:48;-2.40;99.90
9776;DHT22;4927;52.472;13.108;2023-11-22T04:36:50;-2.50;99.90
9776;DHT22;4927;52.472;13.108;2023-11-22T04:37:53;-2.50;99.90
9776;DHT22;4927;52.472;13.108;2023-11-22T04:38:55;-2.50;99.90
9776;DHT22;4927;52.472;13.108;2023-11-22T04:39:56;-2.50;99.90
9776;DHT22;4927;52.472;13.108;2023-11-22T04:40:59;-2.50;99.90
9776;DHT22;4927;52.472;13.108;2023-11-22T04:42:01;-2.50;99.90
9776;DHT22;4927;52.472;13.108;2023-11-22T04:43:03;-2.50;99.90
9776;DHT22;4927;52.472;13.108;2023-11-22T04:44:05;-2.50;99.90
9776;DHT22;4927;52.472;13.108;2023-11-22T04:45:08;-2.50;99.90
9776;DHT22;4927;52.472;13.108;2023-11-22T04:46:11;-2.50;99.90
9776;DHT22;4927;52.472;13.108;2023-11-22T04:47:13;-2.60;99.90
9776;DHT22;4927;52.472;13.108;2023-11-22T04:48:15;-2.60;99.90
9776;DHT22;4927;52.472;13.108;2023-11-22T04:49:17;-2.60;99.90
9776;DHT22;4927;52.472;13.108;2023-11-22T04:50:19;-2.60;99.90
9776;DHT22;4927;52.472;13.108;2023-11-22T04:51:22;-2.60;99.90
9776;DHT22;4927;52.472;13.108;2023-11-22T04:52:24;-2.60;99.90
9776;DHT22;4927;52.472;13.108;2023-11-22T04:53:26;-2.60;99.90
9776;DHT22;4927;52.472;13.108;2023-11-22T04:54:28;-2.60;99.90
9776;DHT22;4927;52.472;13.108;2023-11-22T04:55:30;-2.60;99.90
9776;DHT22;4927;52.472;13.108;2023-11-22T04:56:31;-2.60;99.90
9776;DHT22;4927;52.472;13.108;2023-11-22T04:57:33;-2.60;99.90
9776;DHT22;4927;52.472;13.108;2023-11-22T04:58:35;-2.60;99.90
9776;DHT22;4927;52.472;13.108;2023-11-22T04:59:37;-2.60;99.90
9776;DHT22;4927;52.472;13.108;2023-11-22T05:00:39;-2.60;99.90
9776;DHT22;4927;52.472;13.108;2023-11-22T05:01:41;-2.60;99.90
9776;DHT22;4927;52.472;13.108;2023-11-22T05:02:43;-2.60;99.90
9776;DHT22;4927;52.472;13.108;2023-11-22T05:03:45;-2.60;99.90
9776;DHT22;4927;52.472;13.108;2023-11-22T05:04:47;-2.60;99.90
9776;DHT22;4927;52.472;13.108;2023-11-22T05:05:49;-2.60;99.90
9776;DHT22;4927;52.472;13.108;2023-11-22T05:06:51;-2.60;99.90
9776;DHT22;4927;52.472;13.108;2023-11-22T05:07:53;-2.60;99.90
9776;DHT22;4927;52.472;13.108;2023-11-22T05:08:55;-2.60;99.90
9776;DHT22;4927;52.472;13.108;2023-11-22T05:09:57;-2.60;99.90
9776;DHT22;4927;52.472;13.108;2023-11-22T05:10:59;-2.60;99.90
9776;DHT22;4927;52.472;13.108;2023-11-22T05:12:01;-2.60;99.90
9776;DHT22;4927;52.472;13.108;2023-11-22T05:13:03;-2.50;99.90
9776;DHT22;4927;52.472;13.108;2023-11-22T05:14:06;-2.60;99.90
9776;DHT22;4927;52.472;13.108;2023-11-22T05:15:10;-2.60;99.90
9776;DHT22;4927;52.472;13.108;2023-11-22T05:16:11;-2.60;99.90
9776;DHT22;4927;52.472;13.108;2023-11-22T05:17:14;-2.60;99.90
9776;DHT22;4927;52.472;13.108;2023-11-22T05:18:17;-2.60;99.90
9776;DHT22;4927;52.472;13.108;2023-11-22T05:19:19;-2.60;99.90
9776;DHT22;4927;52.472;13.108;2023-11-22T05:20:20;-2.60;99.90
9776;DHT22;4927;52.472;13.108;2023-11-22T05:21:23;-2.60;99.90
9776;DHT22;4927;52.472;13.108;2023-11-22T05:22:26;-2.60;99.90
9776;DHT22;4927;52.472;13.108;2023-11-22T05:23:29;-2.60;99.90
9776;DHT22;4927;52.472;13.108;2023-11-22T05:24:31;-2.60;99.90
9776;DHT22;4927;52.472;13.108;2023-11-22T05:25:33;-2.60;99.90
9776;DHT22;4927;52.472;13.108;2023-11-22T05:26:35;-2.60;99.90
9776;DHT22;4927;52.472;13.108;2023-11-22T05:27:37;-2.60;99.90
9776;DHT22;4927;52.472;13.108;2023-11-22T05:28:40;-2.70;99.90
9776;DHT22;4927;52.472;13.108;2023-11-22T05:29:42;-2.70;99.90
9776;DHT22;4927;52.472;13.108;2023-11-22T05:30:44;-2.70;99.90
9776;DHT22;4927;52.472;13.108;2023-11-22T05:31:47;-2.70;99.90
9776;DHT22;4927;52.472;13.108;2023-11-22T05:32:49;-2.70;99.90
9776;DHT22;4927;52.472;13.108;2023-11-22T05:33:50;-2.70;99.90
9776;DHT22;4927;52.472;13.108;2023-11-22T05:34:53;-2.70;99.90
9776;DHT22;4927;52.472;13.108;2023-11-22T05:35:55;-2.80;99.90
9776;DHT22;4927;52.472;13.108;2023-11-22T05:36:57;-2.80;99.90
9776;DHT22;4927;52.472;13.108;2023-11-22T05:37:59;-2.80;99.90
9776;DHT22;4927;52.472;13.108;2023-11-22T05:39:01;-2.80;99.90
9776;DHT22;4927;52.472;13.108;2023-11-22T05:40:05;-2.80;99.90
9776;DHT22;4927;52.472;13.108;2023-11-22T05:41:08;-2.80;99.90
9776;DHT22;4927;52.472;13.108;2023-11-22T05:42:10;-2.80;99.90
9776;DHT22;4927;52.472;13.108;2023-11-22T05:43:12;-2.80;99.90
9776;DHT22;4927;52.472;13.108;2023-11-22T05:44:14;-2.80;99.90
9776;DHT22;4927;52.472;13.108;2023-11-22T05:45:16;-2.80;99.90
9776;DHT22;4927;52.472;13.108;2023-11-22T05:46:19;-2.80;99.90
9776;DHT22;4927;52.472;13.108;2023-11-22T05:47:21;-2.80;99.90
9776;DHT22;4927;52.472;13.108;2023-11-22T05:48:23;-2.80;99.90
9776;DHT22;4927;52.472;13.108;2023-11-22T05:49:25;-2.80;99.90
9776;DHT22;4927;52.472;13.108;2023-11-22T05:50:27;-2.80;99.90
9776;DHT22;4927;52.472;13.108;2023-11-22T05:51:30;-2.80;99.90
9776;DHT22;4927;52.472;13.108;2023-11-22T05:52:32;-2.80;99.90
9776;DHT22;4927;52.472;13.108;2023-11-22T05:53:34;-2.80;99.90
9776;DHT22;4927;52.472;13.108;2023-11-22T05:54:36;-2.90;99.90
9776;DHT22;4927;52.472;13.108;2023-11-22T05:55:38;-2.90;99.90
9776;DHT22;4927;52.472;13.108;2023-11-22T05:56:41;-2.80;99.90
9776;DHT22;4927;52.472;13.108;2023-11-22T05:57:42;-2.90;99.90
9776;DHT22;4927;52.472;13.108;2023-11-22T05:58:45;-2.90;99.90
9776;DHT22;4927;52.472;13.108;2023-11-22T05:59:46;-2.90;99.90
9776;DHT22;4927;52.472;13.108;2023-11-22T06:00:48;-2.90;99.90
9776;DHT22;4927;52.472;13.108;2023-11-22T06:01:50;-2.90;99.90
9776;DHT22;4927;52.472;13.108;2023-11-22T06:02:52;-2.90;99.90
9776;DHT22;4927;52.472;13.108;2023-11-22T06:03:55;-3.00;99.90
9776;DHT22;4927;52.472;13.108;2023-11-22T06:04:56;-3.00;99.90
9776;DHT22;4927;52.472;13.108;2023-11-22T06:05:58;-3.00;99.90
9776;DHT22;4927;52.472;13.108;2023-11-22T06:07:01;-3.00;99.90
9776;DHT22;4927;52.472;13.108;2023-11-22T06:08:04;-3.00;99.90
9776;DHT22;4927;52.472;13.108;2023-11-22T06:09:06;-3.10;99.90
9776;DHT22;4927;52.472;13.108;2023-11-22T06:10:08;-3.10;99.90
9776;DHT22;4927;52.472;13.108;2023-11-22T06:11:10;-3.10;99.90
9776;DHT22;4927;52.472;13.108;2023-11-22T06:12:13;-3.10;99.90
9776;DHT22;4927;52.472;13.108;2023-11-22T06:13:15;-3.10;99.90
9776;DHT22;4927;52.472;13.108;2023-11-22T06:14:17;-3.10;99.90
9776;DHT22;4927;52.472;13.108;2023-11-22T06:15:20;-3.10;99.90
9776;DHT22;4927;52.472;13.108;2023-11-22T06:16:22;-3.10;99.90
9776;DHT22;4927;52.472;13.108;2023-11-22T06:17:24;-3.20;99.90
9776;DHT22;4927;52.472;13.108;2023-11-22T06:18:26;-3.20;99.90
9776;DHT22;4927;52.472;13.108;2023-11-22T06:19:28;-3.20;99.90
9776;DHT22;4927;52.472;13.108;2023-11-22T06:20:30;-3.30;99.90
9776;DHT22;4927;52.472;13.108;2023-11-22T06:21:32;-3.30;99.90
9776;DHT22;4927;52.472;13.108;2023-11-22T06:22:34;-3.30;99.90
9776;DHT22;4927;52.472;13.108;2023-11-22T06:23:36;-3.30;99.90
9776;DHT22;4927;52.472;13.108;2023-11-22T06:24:39;-3.30;99.90
9776;DHT22;4927;52.472;13.108;2023-11-22T06:25:41;-3.30;99.90
9776;DHT22;4927;52.472;13.108;2023-11-22T06:26:43;-3.30;99.90
9776;DHT22;4927;52.472;13.108;2023-11-22T06:27:45;-3.30;99.90
9776;DHT22;4927;52.472;13.108;2023-11-22T06:28:47;-3.30;99.90
9776;DHT22;4927;52.472;13.108;2023-11-22T06:29:49;-3.30;99.90
9776;DHT22;4927;52.472;13.108;2023-11-22T06:30:51;-3.30;99.90
9776;DHT22;4927;52.472;13.108;2023-11-22T06:31:53;-3.30;99.90
9776;DHT22;4927;52.472;13.108;2023-11-22T06:32:55;-3.30;99.90
9776;DHT22;4927;52.472;13.108;2023-11-22T06:33:57;-3.30;99.90
9776;DHT22;4927;52.472;13.108;2023-11-22T06:34:59;-3.30;99.90
9776;DHT22;4927;52.472;13.108;2023-11-22T06:36:01;-3.30;99.90
9776;DHT22;4927;52.472;13.108;2023-11-22T06:37:03;-3.30;99.90
9776;DHT22;4927;52.472;13.108;2023-11-22T06:38:05;-3.30;99.90
9776;DHT22;4927;52.472;13.108;2023-11-22T06:39:07;-3.30;99.90